EST,Max TemperatureF,Mean TemperatureF,Min TemperatureF,Max Dew PointF,MeanDew PointF,Min DewpointF,Max Humidity, Mean Humidity, Min Humidity, Max Sea Level PressureIn, Mean Sea Level PressureIn, Min Sea Level PressureIn, Max VisibilityMiles, Mean VisibilityMiles, Min VisibilityMiles, Max Wind SpeedMPH, Mean Wind SpeedMPH, Max Gust SpeedMPH,PrecipitationIn, CloudCover, Events, WindDirDegrees
2012-12-1,61,42,22,38,29,20,92,66,40,30.45,30.38,30.30,10,7,2,9,1,14,0.00,0,,209
2012-12-2,63,46,28,51,39,27,96,72,47,30.35,30.26,30.18,10,6,2,14,2,21,0.15,4,Rain,188
2012-12-3,62,51,39,54,47,37,100,86,72,30.30,30.25,30.22,10,6,0,12,3,18,0.08,6,Fog-Rain,202
2012-12-4,69,52,35,52,41,34,100,73,45,30.31,30.23,30.09,10,4,0,16,4,25,0.02,6,Fog-Rain,203
2012-12-5,56,40,24,48,35,23,92,73,53,30.34,30.24,30.11,10,9,3,15,4,23,0.13,5,Rain,309
2012-12-6,52,37,22,36,27,19,100,72,44,30.34,30.23,30.09,10,5,0,8,1,10,0.00,5,Fog,150
2012-12-7,53,48,43,50,45,36,100,88,76,30.12,30.01,29.92,10,4,0,5,0,6,0.19,7,Fog-Rain,327
2012-12-8,59,52,45,52,49,44,93,83,72,30.06,29.97,29.91,10,8,2,15,5,24,0.38,8,Rain,262
2012-12-9,59,54,48,54,50,46,100,84,67,30.10,30.03,29.87,10,5,1,10,2,13,0.88,7,Rain,167
2012-12-10,56,46,36,52,45,33,93,85,77,29.84,29.74,29.62,10,8,2,21,6,28,0.43,7,Rain,229
2012-12-11,36,34,31,34,27,21,92,79,66,30.26,30.03,29.81,10,8,2,14,6,16,0.03,8,Snow,274
2012-12-12,37,30,22,25,23,19,92,72,52,30.45,30.37,30.21,10,10,6,6,0,8,0.00,3,,315
2012-12-13,49,33,17,27,18,14,92,59,26,30.50,30.39,30.32,10,4,0,5,0,6,0.00,3,Fog,280
2012-12-14,53,35,16,31,19,13,92,58,24,30.43,30.36,30.29,10,9,7,10,1,13,0.00,0,,273
2012-12-15,56,40,24,37,24,17,92,57,22,30.30,30.16,30.03,10,9,5,9,2,14,0.03,3,Rain,156
2012-12-16,56,48,39,50,42,33,93,77,60,29.99,29.88,29.79,10,10,8,10,3,14,T,6,Rain,148
2012-12-17,57,47,37,46,43,37,96,77,57,29.84,29.72,29.57,10,9,4,22,3,30,0.27,7,Rain,213
2012-12-18,47,40,32,40,35,29,85,79,73,29.91,29.73,29.58,10,9,4,22,9,35,0.15,7,Rain,263
2012-12-19,45,36,27,34,31,27,92,73,53,30.20,30.04,29.84,10,9,4,24,6,36,0.00,6,,269
2012-12-20,47,37,26,40,33,25,92,73,53,30.16,29.77,29.16,10,7,4,26,9,39,0.51,5,Rain,178
2012-12-21,39,32,25,31,21,19,82,76,69,29.82,29.57,29.45,10,3,0,26,18,46,0.05,8,Rain-Snow,256
2012-12-22,28,26,24,22,19,16,81,72,63,30.18,30.00,29.74,10,4,1,25,9,41,0.04,8,Snow,263
2012-12-23,46,26,6,24,16,3,92,65,37,30.15,30.07,29.96,10,9,6,16,2,23,0.00,0,,245
2012-12-24,43,30,17,39,30,15,100,92,84,30.04,29.89,29.77,10,4,1,15,2,21,0.24,6,Rain,233
2012-12-25,42,35,28,38,32,27,92,81,70,30.16,30.08,29.94,10,8,4,13,4,18,0.01,7,Rain,324
2012-12-26,40,35,30,31,29,26,92,78,64,30.09,29.70,29.51,10,6,2,21,6,45,0.41,7,Rain-Snow,129
2012-12-27,35,30,25,31,24,19,92,84,75,30.16,29.86,29.58,10,5,1,26,10,43,0.09,8,Rain-Snow,286
2012-12-28,37,32,26,29,24,21,92,78,64,30.19,30.08,29.91,10,10,6,9,1,12,T,6,,311
2012-12-29,37,32,27,31,28,21,92,81,70,29.99,29.75,29.63,10,4,1,21,10,29,0.21,8,Rain-Snow,222
2012-12-30,27,21,14,22,18,11,81,75,68,30.46,30.25,29.94,10,5,1,24,10,32,0.04,8,Snow,268
2012-12-31,37,21,5,19,12,2,92,66,40,30.43,30.28,30.07,10,9,7,15,2,23,T,3,,236